Latest Weather Observations for Port Augusta

IDS60801

Issued at 4:01 am CST Monday 29 August 2016 (issued every 30 minutes, with the page automatically refreshed every 10 minutes)

About weather observations | Map of weather stations | Latest weather observations for SA | Other Formats
Station Details ID: 018201 Name: PORT AUGUSTA AERO Lat: -32.51 Lon: 137.72 Height: 13.97 m
Data from the previous 72 hours. | See also: Recent months at Port Augusta
Date/Time
CST
Temp
°C
App
Temp
°C
Dew
Point
°C
Rel
Hum
%
Delta-T
°C
Wind Press
QNH
hPa
Press
MSL
hPa
Rain since
9am
mm
Dir  Spd
km/h
Gust
km/h
Spd
kts
Gust
kts
29/04:00am 18.6 12.9 2.9 35 7.3 NE 22 33 12 18 1012.3 1012.3 0.0
29/03:30am 18.1 11.4 3.9 39 6.7 NE 28 41 15 22 1012.7 1012.7 0.0
29/03:26am 18.6 11.8 2.9 35 7.3 NE 28 39 15 21 1012.7 1012.7 0.0
29/03:00am 18.7 14.3 2.5 34 7.4 ENE 15 20 8 11 1012.8 1012.8 0.0
29/02:30am 19.6 13.3 1.6 30 8.2 NE 24 32 13 17 1013.0 1013.0 0.0
29/02:00am 18.8 14.0 2.6 34 7.5 NE 17 28 9 15 1013.6 1013.6 0.0
29/01:30am 18.8 12.3 2.6 34 7.5 NE 26 37 14 20 1013.7 1013.7 0.0
29/01:06am 20.0 12.0 0.5 27 8.7 NE 32 52 17 28 1013.9 1013.9 0.0
29/01:00am 19.7 12.1 0.7 28 8.5 NE 30 39 16 21 1013.9 1013.9 0.0
29/12:30am 19.9 12.4 1.4 29 8.4 NE 30 43 16 23 1014.0 1014.0 0.0
29/12:00am 20.5 12.5 0.4 26 9.0 NNE 32 43 17 23 1013.7 1013.7 0.0
 
Date/Time
CST
Temp
°C
App
Temp
°C
Dew
Point
°C
Rel
Hum
%
Delta-T
°C
Wind Press
QNH
hPa
Press
MSL
hPa
Rain since
9am
mm
Dir  Spd
km/h
Gust
km/h
Spd
kts
Gust
kts
28/11:30pm 19.9 12.8 1.4 29 8.4 NNE 28 33 15 18 1013.6 1013.6 0.0
28/11:00pm 19.8 13.9 1.7 30 8.3 N 22 28 12 15 1014.0 1014.0 0.0
28/10:30pm 20.0 13.8 1.9 30 8.3 NNE 24 32 13 17 1014.1 1014.1 0.0
28/10:00pm 19.1 13.6 2.0 32 7.8 NNE 20 26 11 14 1014.1 1014.1 0.0
28/09:30pm 17.6 13.6 2.8 37 6.8 NNE 13 19 7 10 1014.5 1014.5 0.0
28/09:00pm 17.4 13.8 3.0 38 6.6 N 11 15 6 8 1014.5 1014.5 0.0
28/08:30pm 17.4 13.8 3.0 38 6.6 N 11 15 6 8 1014.3 1014.3 0.0
28/08:00pm 17.8 13.7 2.2 35 7.1 NNE 13 17 7 9 1014.0 1014.0 0.0
28/07:30pm 18.7 13.4 2.1 33 7.6 NNE 19 22 10 12 1014.1 1014.1 0.0
28/07:00pm 18.7 13.4 2.1 33 7.6 NNE 19 20 10 11 1013.7 1013.7 0.0
28/06:30pm 19.6 14.1 1.6 30 8.2 NNE 20 28 11 15 1013.4 1013.4 0.0
28/06:00pm 20.9 13.9 1.7 28 8.8 N 28 35 15 19 1012.9 1012.9 0.0
28/05:30pm 21.5 13.6 1.2 26 9.3 N 32 43 17 23 1012.6 1012.6 0.0
28/05:00pm 22.3 13.1 1.3 25 9.7 N 39 54 21 29 1012.3 1012.3 0.0
28/04:30pm 22.2 13.0 1.3 25 9.6 N 39 56 21 30 1012.0 1012.0 0.0
28/04:00pm 22.4 12.8 0.9 24 9.9 N 41 56 22 30 1012.0 1012.0 0.0
28/03:30pm 23.1 13.6 1.5 24 10.1 N 41 56 22 30 1011.9 1011.9 0.0
28/03:20pm 22.7 12.7 1.1 24 10.0 N 43 61 23 33 1012.0 1012.0 0.0
28/03:00pm 22.3 12.1 0.8 24 9.8 N 44 57 24 31 1012.5 1012.5 0.0
28/02:30pm 22.0 11.4 1.1 25 9.6 N 46 65 25 35 1013.1 1013.1 0.0
28/02:24pm 22.6 12.0 1.0 24 9.9 N 46 65 25 35 1013.3 1013.3 0.0
28/02:00pm 22.3 12.1 0.8 24 9.8 N 44 59 24 32 1013.9 1013.9 0.0
28/01:30pm 22.1 12.4 0.6 24 9.8 N 41 52 22 28 1014.2 1014.2 0.0
28/01:00pm 22.1 10.7 0.6 24 9.8 N 50 63 27 34 1015.0 1015.0 0.0
28/12:30pm 22.4 12.4 0.9 24 9.8 N 43 57 23 31 1015.6 1015.6 0.0
28/12:19pm 21.2 10.2 0.4 25 9.4 N 48 67 26 36 1015.8 1015.8 0.0
28/12:00pm 21.7 9.5 0.3 24 9.6 N 54 65 29 35 1016.0 1016.0 0.0
28/11:38am 20.8 10.1 0.1 25 9.2 N 46 65 25 35 1016.6 1016.6 0.0
28/11:30am 20.7 10.4 0.5 26 9.1 N 44 59 24 32 1016.7 1016.7 0.0
28/11:18am 20.0 9.6 -0.1 26 8.9 N 44 63 24 34 1016.8 1016.8 0.0
28/11:00am 19.2 9.0 -0.2 27 8.5 N 43 56 23 30 1017.0 1017.0 0.0
28/10:30am 18.9 8.7 -0.5 27 8.4 N 43 59 23 32 1017.2 1017.2 0.0
28/10:00am 18.4 7.5 -0.9 27 8.3 N 46 57 25 31 1017.7 1017.7 0.0
28/09:30am 17.5 7.9 -1.2 28 7.9 N 39 56 21 30 1018.2 1018.2 0.0
28/09:00am 17.2 7.6 -1.4 28 7.8 N 39 57 21 31 1018.1 1018.1 0.0
28/08:52am 16.4 7.5 -1.7 29 7.5 N 35 57 19 31 1018.1 1018.1 0.0
28/08:30am 15.8 7.6 -1.3 31 7.1 N 32 43 17 23 1018.0 1018.0 0.0
28/08:00am 14.9 7.0 -1.6 32 6.7 N 30 41 16 22 1018.0 1018.0 0.0
28/07:30am 14.2 7.5 -1.4 34 6.3 NNW 24 32 13 17 1017.9 1017.9 0.0
28/07:00am 13.8 7.1 -1.4 35 6.2 N 24 32 13 17 1017.8 1017.8 0.0
28/06:30am 13.5 7.6 -0.9 37 5.9 NNW 20 28 11 15 1017.7 1017.7 0.0
28/06:00am 13.6 7.7 -0.8 37 5.9 NNW 20 28 11 15 1017.6 1017.6 0.0
28/05:30am 13.7 8.4 -0.3 38 5.8 N 17 22 9 12 1017.4 1017.4 0.0
28/05:00am 13.7 8.4 -0.3 38 5.8 NNW 17 22 9 12 1017.1 1017.1 0.0
28/04:30am 13.4 8.6 0.1 40 5.5 NNW 15 19 8 10 1017.0 1017.0 0.0
28/04:00am 11.0 7.1 1.3 51 4.1 NW 11 15 6 8 1016.9 1016.9 0.0
28/03:30am 10.6 6.7 1.2 52 3.9 NW 11 15 6 8 1016.9 1016.9 0.0
28/03:00am 9.1 5.6 1.5 59 3.1 WSW 9 13 5 7 1017.2 1017.2 0.0
28/02:30am 10.1 7.0 1.5 55 3.6 W 7 9 4 5 1017.8 1017.8 0.0
28/02:00am 11.6 7.7 1.3 49 4.3 N 11 13 6 7 1017.8 1017.8 0.0
28/01:30am 12.6 8.3 1.3 46 4.8 N 13 19 7 10 1018.1 1018.1 0.0
28/01:00am 12.7 7.7 1.4 46 4.8 N 17 22 9 12 1018.3 1018.3 0.0
28/12:30am 12.1 9.0 1.4 48 4.5 NW 7 13 4 7 1018.6 1018.6 0.0
28/12:00am 12.5 8.3 1.5 47 4.7 N 13 19 7 10 1018.5 1018.5 0.0
 
Date/Time
CST
Temp
°C
App
Temp
°C
Dew
Point
°C
Rel
Hum
%
Delta-T
°C
Wind Press
QNH
hPa
Press
MSL
hPa
Rain since
9am
mm
Dir  Spd
km/h
Gust
km/h
Spd
kts
Gust
kts
27/11:30pm 13.1 8.1 1.5 45 5.0 N 17 22 9 12 1018.3 1018.3 0.0
27/11:00pm 13.9 7.9 1.2 42 5.4 N 22 26 12 14 1018.3 1018.3 0.0
27/10:30pm 13.9 9.0 1.9 44 5.2 N 17 20 9 11 1018.5 1018.5 0.0
27/10:00pm 13.3 9.2 2.2 47 4.8 NNW 13 15 7 8 1018.6 1018.6 0.0
27/09:30pm 13.3 9.5 1.9 46 4.9 NNW 11 13 6 7 1018.5 1018.5 0.0
27/09:00pm 14.3 10.5 1.6 42 5.5 NNE 11 13 6 7 1018.4 1018.4 0.0
27/08:30pm 14.2 10.4 1.5 42 5.5 NNE 11 17 6 9 1018.5 1018.5 0.0
27/08:00pm 15.2 10.9 1.0 38 6.1 N 13 17 7 9 1018.7 1018.7 0.0
27/07:30pm 16.0 10.5 0.6 35 6.6 N 19 22 10 12 1018.8 1018.8 0.0
27/07:00pm 15.9 10.8 0.5 35 6.6 N 17 20 9 11 1018.7 1018.7 0.0
27/06:30pm 16.0 11.4 -0.7 32 7.0 NNW 13 17 7 9 1018.5 1018.5 0.0
27/06:00pm 17.5 12.1 -1.2 28 7.9 N 17 22 9 12 1018.1 1018.1 0.0
27/05:30pm 18.9 11.7 -2.1 24 8.8 N 26 33 14 18 1017.8 1017.8 0.0
27/05:00pm 19.4 12.2 -1.7 24 9.0 N 26 33 14 18 1018.2 1018.2 0.0
27/04:30pm 19.4 12.6 -1.7 24 8.9 N 24 35 13 19 1018.1 1018.1 0.0
27/04:00pm 21.0 14.0 -0.3 24 9.4 N 26 35 14 19 1018.7 1018.7 0.0
27/03:30pm 21.1 13.2 -1.4 22 9.7 NNW 30 43 16 23 1018.9 1018.9 0.0
27/03:00pm 21.3 14.2 -1.3 22 9.8 NW 26 37 14 20 1019.5 1019.5 0.0
27/02:30pm 20.7 13.7 -0.6 24 9.3 NNW 26 39 14 21 1019.7 1019.7 0.0
27/02:00pm 21.0 13.6 -0.9 23 9.6 NNW 28 35 15 19 1019.9 1019.9 0.0
27/01:30pm 20.2 14.0 -0.4 25 9.0 NNW 22 37 12 20 1020.3 1020.3 0.0
27/01:00pm 20.2 13.0 0.6 27 8.8 NNW 28 41 15 22 1021.0 1021.0 0.0
27/12:30pm 19.7 13.7 1.2 29 8.3 N 22 35 12 19 1021.6 1021.6 0.0
27/12:00pm 20.6 13.5 1.5 28 8.7 NNW 28 41 15 22 1022.2 1022.2 0.0
27/11:30am 18.6 12.7 1.6 32 7.6 NNW 22 33 12 18 1022.6 1022.6 0.0
27/11:00am 18.0 11.7 1.5 33 7.4 N 24 30 13 16 1023.1 1023.1 0.0
27/10:30am 16.3 9.6 1.2 36 6.6 N 26 33 14 18 1023.3 1023.3 0.0
27/10:00am 15.8 10.4 2.2 40 6.1 NNW 20 28 11 15 1023.6 1023.6 0.0
27/09:30am 14.3 9.1 2.5 45 5.2 N 19 26 10 14 1023.8 1023.8 0.0
27/09:00am 11.9 8.8 3.4 56 3.7 N 9 13 5 7 1023.9 1023.9 0.0
27/08:30am 9.4 6.8 3.2 65 2.7 WNW 6 9 3 5 1024.0 1024.0 0.0
27/08:00am 6.3 4.9 3.5 82 1.2 CALM 0 0 0 0 1023.8 1023.8 0.0
27/07:30am 3.3 1.6 2.0 91 0.5 CALM 0 0 0 0 1023.6 1023.6 0.0
27/07:00am 0.9 -1.1 -0.4 91 0.5 CALM 0 0 0 0 1023.5 1023.5 0.0
27/06:30am 1.2 -2.2 -0.3 90 0.5 W 7 7 4 4 1023.2 1023.2 0.0
27/06:00am 2.0 -2.0 0.5 90 0.6 WNW 11 13 6 7 1023.1 1023.1 0.0
27/05:30am 1.8 -1.8 0.3 90 0.6 WSW 9 9 5 5 1022.3 1022.3 0.0
27/05:00am 2.3 -0.7 0.7 89 0.6 SW 6 7 3 4 1022.4 1022.4 0.0
27/04:30am 2.9 -0.1 1.1 88 0.7 SSW 6 7 3 4 1022.2 1022.2 0.0
27/04:00am 2.3 -0.9 0.5 88 0.7 SSW 7 9 4 5 1022.4 1022.4 0.0
27/03:30am 2.7 -0.5 0.8 87 0.7 SW 7 11 4 6 1022.6 1022.6 0.0
27/03:00am 2.6 -1.0 0.7 87 0.7 SSW 9 11 5 6 1022.8 1022.8 0.0
27/02:30am 2.5 -1.4 0.9 89 0.6 SW 11 13 6 7 1023.0 1023.0 0.0
27/02:00am 3.1 -0.8 1.0 86 0.8 WSW 11 13 6 7 1023.2 1023.2 0.0
27/01:30am 3.8 0.8 1.7 86 0.8 WNW 7 9 4 5 1023.4 1023.4 0.0
27/01:00am 4.7 1.9 2.2 84 1.0 SW 6 7 3 4 1023.3 1023.3 0.0
27/12:30am 4.5 1.5 1.9 83 1.0 SW 7 9 4 5 1023.4 1023.4 0.0
27/12:00am 4.8 1.7 1.5 79 1.3 SE 7 7 4 4 1023.7 1023.7 0.0
 
Date/Time
CST
Temp
°C
App
Temp
°C
Dew
Point
°C
Rel
Hum
%
Delta-T
°C
Wind Press
QNH
hPa
Press
MSL
hPa
Rain since
9am
mm
Dir  Spd
km/h
Gust
km/h
Spd
kts
Gust
kts
26/11:30pm 8.3 4.9 3.8 73 1.9 ESE 11 13 6 7 1023.7 1023.7 0.0
26/11:00pm 9.1 5.3 3.9 70 2.3 ESE 13 15 7 8 1023.7 1023.7 0.0
26/10:30pm 9.6 5.9 4.4 70 2.3 ESE 13 17 7 9 1024.0 1024.0 0.0
26/10:00pm 8.3 4.7 4.9 79 1.5 ESE 13 17 7 9 1024.2 1024.2 0.0
26/09:30pm 9.1 5.6 5.5 78 1.6 E 13 17 7 9 1024.1 1024.1 0.0
26/09:00pm 7.9 4.2 4.5 79 1.5 E 13 17 7 9 1024.0 1024.0 0.0
26/08:30pm 9.0 5.6 3.8 70 2.2 SE 11 17 6 9 1023.9 1023.9 0.0
26/08:00pm 11.9 7.7 5.5 65 3.0 SE 17 20 9 11 1024.0 1024.0 0.0
26/07:30pm 12.2 7.9 5.1 62 3.3 SE 17 20 9 11 1023.8 1023.8 0.0
26/07:00pm 12.4 7.5 3.9 56 3.8 SE 19 22 10 12 1023.6 1023.6 0.0
26/06:30pm 12.6 7.9 5.1 60 3.4 SE 19 22 10 12 1023.5 1023.5 0.0
26/06:00pm 13.4 9.0 4.8 56 4.0 SSE 17 20 9 11 1023.3 1023.3 0.0
26/05:30pm 14.8 10.1 3.3 46 5.2 SSE 17 22 9 12 1023.0 1023.0 0.0
26/05:00pm 15.5 10.8 3.0 43 5.7 SE 17 20 9 11 1022.8 1022.8 0.0
26/04:30pm 16.1 11.7 2.9 41 6.0 SE 15 19 8 10 1022.7 1022.7 0.0
26/04:00pm 16.2 11.8 2.9 41 6.0 SE 15 22 8 12 1022.8 1022.8 0.0
26/03:30pm 16.6 11.9 3.0 40 6.2 SE 17 20 9 11 1022.9 1022.9 0.0
26/03:00pm 16.4 12.3 2.4 39 6.3 SE 13 22 7 12 1023.1 1023.1 0.0
26/02:30pm 16.5 11.3 2.2 38 6.4 SE 19 28 10 15 1023.2 1023.2 0.0
26/02:00pm 16.3 13.0 2.3 39 6.3 ESE 9 15 5 8 1023.5 1023.5 0.0
26/01:30pm 16.8 13.0 2.0 37 6.6 ESE 11 20 6 11 1023.8 1023.8 0.0
26/01:00pm 16.0 11.5 2.1 39 6.2 ESE 15 20 8 11 1024.1 1024.1 0.0
26/12:30pm 16.1 12.0 2.5 40 6.1 ESE 13 20 7 11 1024.6 1024.6 0.0
26/12:00pm 15.4 10.6 2.6 42 5.7 SE 17 22 9 12 1025.2 1025.2 0.0
26/11:30am 14.9 10.2 3.1 45 5.3 SE 17 22 9 12 1025.6 1025.6 0.0
26/11:00am 14.9 10.7 4.0 48 5.0 SE 15 20 8 11 1026.1 1026.1 0.0
26/10:30am 13.9 9.8 4.5 53 4.3 SE 15 24 8 13 1026.4 1026.4 0.0
26/10:00am 14.2 10.4 5.8 57 4.0 ESE 15 19 8 10 1026.3 1026.3 0.0
26/09:30am 13.2 10.2 5.9 61 3.4 ESE 11 15 6 8 1026.3 1026.3 0.0
26/09:00am 12.3 8.9 5.9 65 3.0 SE 13 19 7 10 1026.2 1026.2 0.0
26/08:30am 10.5 7.6 6.3 75 1.9 SSE 11 13 6 7 1026.0 1026.0 0.0
26/08:00am 8.0 6.9 5.1 82 1.3 CALM 0 0 0 0 1025.9 1025.9 0.0
26/07:30am 4.5 1.8 3.5 93 0.4 SSW 7 9 4 5 1025.6 1025.6 0.0
26/07:00am 2.7 -0.2 1.4 91 0.5 SSW 6 7 3 4 1025.3 1025.3 0.0
26/06:30am 3.8 0.6 2.8 93 0.4 SW 9 11 5 6 1024.9 1024.9 0.0
26/06:00am 2.9 -0.9 1.7 92 0.5 SSW 11 11 6 6 1024.5 1024.5 0.0
26/05:30am 3.0 1.2 1.2 88 0.7 CALM 0 0 0 0 1024.3 1024.3 0.0
26/05:00am 3.6 0.8 2.0 89 0.6 W 6 7 3 4 1024.2 1024.2 0.0
26/04:30am 5.1 1.9 3.1 87 0.8 ENE 9 11 5 6 1023.8 1023.8 0.0

Other Formats:

Comma delimited format used in spreadsheet applications
http://www.bom.gov.au/fwo/IDS60801/IDS60801.95666.axf

JavaScript Object Notation format (JSON) in row-major order
http://www.bom.gov.au/fwo/IDS60801/IDS60801.95666.json